Time;durP1;ratioP1;P1;durP2;ratioP2;P2;SDS_P1;SDS_P2;PMS_P1;PMS_P2;Temp;Humidity;BMP_temperature;BMP_pressure;BME280_temperature;BME280_humidity;BME280_pressure;Samples;Min_cycle;Max_cycle;Signal;HPM_P1;HPM_P2
2022/11/23 00:00:08;;;;;;;3.88;1.38;;;;;;;;;;4964865;28;20469;-67
2022/11/23 00:02:34;;;;;;;2.17;1.20;;;;;;;;;;4965535;28;20050;-67
2022/11/23 00:05:01;;;;;;;2.53;1.38;;;;;;;;;;4981897;28;20139;-67
2022/11/23 00:07:27;;;;;;;4.40;1.40;;;;;;;;;;4967156;28;20191;-67
2022/11/23 00:09:54;;;;;;;3.78;1.60;;;;;;;;;;4980222;28;20063;-67
2022/11/23 00:12:20;;;;;;;4.20;1.60;;;;;;;;;;4997606;28;20077;-67
2022/11/23 00:14:47;;;;;;;4.20;1.35;;;;;;;;;;4972269;28;20067;-66
2022/11/23 00:17:15;;;;;;;5.40;1.30;;;;;;;;;;4992872;28;20049;-66
2022/11/23 00:19:41;;;;;;;2.40;1.20;;;;;;;;;;4963243;28;21138;-67
2022/11/23 00:22:08;;;;;;;2.85;1.27;;;;;;;;;;4987052;28;20115;-67
2022/11/23 00:24:34;;;;;;;3.65;1.50;;;;;;;;;;4964115;28;20111;-67
2022/11/23 00:27:01;;;;;;;7.40;1.40;;;;;;;;;;4975013;28;20054;-67
2022/11/23 00:29:27;;;;;;;7.30;1.63;;;;;;;;;;4963380;28;20054;-66
2022/11/23 00:31:54;;;;;;;3.65;1.40;;;;;;;;;;4967758;28;20074;-66
2022/11/23 00:34:22;;;;;;;4.20;1.70;;;;;;;;;;4988799;28;20072;-67
2022/11/23 00:36:48;;;;;;;3.83;1.67;;;;;;;;;;5005458;28;20053;-66
2022/11/23 00:39:15;;;;;;;4.50;1.60;;;;;;;;;;4958382;28;20333;-67
2022/11/23 00:41:41;;;;;;;6.25;1.83;;;;;;;;;;4955252;28;20871;-67
2022/11/23 00:44:08;;;;;;;3.92;1.70;;;;;;;;;;4949333;28;20050;-67
2022/11/23 00:46:34;;;;;;;6.93;1.80;;;;;;;;;;4960250;28;20053;-67
2022/11/23 00:49:01;;;;;;;4.93;1.75;;;;;;;;;;4995026;28;20049;-67
2022/11/23 00:51:29;;;;;;;3.10;1.55;;;;;;;;;;4974047;28;20184;-67
2022/11/23 00:53:56;;;;;;;;;;;;;;;;;;4969746;28;20057;-66
2022/11/23 00:56:23;;;;;;;4.15;1.52;;;;;;;;;;4979752;28;20409;-66
2022/11/23 00:58:50;;;;;;;4.30;1.50;;;;;;;;;;4965215;28;20077;-67
2022/11/23 01:01:17;;;;;;;4.38;1.83;;;;;;;;;;4963621;28;20057;-67
2022/11/23 01:03:45;;;;;;;6.55;1.80;;;;;;;;;;4972225;28;20152;-67
2022/11/23 01:06:12;;;;;;;5.23;1.90;;;;;;;;;;4941385;28;20130;-67
2022/11/23 01:08:40;;;;;;;8.35;2.03;;;;;;;;;;4984794;28;20304;-67
2022/11/23 01:11:08;;;;;;;4.90;1.90;;;;;;;;;;4980848;28;20046;-67
2022/11/23 01:13:35;;;;;;;4.00;1.70;;;;;;;;;;4975721;28;20313;-66
2022/11/23 01:16:02;;;;;;;7.78;2.08;;;;;;;;;;4981718;28;20062;-66
2022/11/23 01:18:29;;;;;;;6.97;2.22;;;;;;;;;;4955679;28;20089;-67
2022/11/23 01:20:55;;;;;;;4.55;1.90;;;;;;;;;;4960928;28;20050;-66
2022/11/23 01:23:22;;;;;;;5.65;2.40;;;;;;;;;;4980057;28;20061;-67
2022/11/23 01:25:50;;;;;;;8.70;2.13;;;;;;;;;;4963506;28;20060;-66
2022/11/23 01:28:16;;;;;;;4.70;2.50;;;;;;;;;;4962708;28;20054;-67
2022/11/23 01:30:43;;;;;;;9.05;2.92;;;;;;;;;;4940135;28;20054;-67
2022/11/23 01:33:09;;;;;;;3.92;1.77;;;;;;;;;;4974611;28;20058;-66
2022/11/23 01:35:36;;;;;;;7.88;2.08;;;;;;;;;;4949572;28;20309;-66
2022/11/23 01:38:02;;;;;;;4.82;2.05;;;;;;;;;;4978355;28;20129;-67
2022/11/23 01:40:29;;;;;;;6.03;2.28;;;;;;;;;;4975104;28;20057;-66
2022/11/23 01:42:58;;;;;;;7.90;2.28;;;;;;;;;;4949574;28;20153;-66
2022/11/23 01:45:24;;;;;;;;;;;;;;;;;;4943185;28;20057;-67
2022/11/23 01:47:50;;;;;;;1.98;1.30;;;;;;;;;;4978199;28;19926;-66
2022/11/23 01:50:17;;;;;;;8.43;2.03;;;;;;;;;;4956599;28;20142;-67
2022/11/23 01:52:44;;;;;;;4.63;2.17;;;;;;;;;;4984688;28;20075;-66
2022/11/23 01:55:10;;;;;;;4.80;2.17;;;;;;;;;;4973752;28;20065;-67
2022/11/23 01:57:39;;;;;;;6.25;2.00;;;;;;;;;;4948414;28;20050;-66
2022/11/23 02:00:07;;;;;;;3.72;2.10;;;;;;;;;;4973477;28;20112;-67
2022/11/23 02:02:34;;;;;;;;;;;;;;;;;;4965547;28;20126;-67
2022/11/23 02:05:01;;;;;;;3.72;1.65;;;;;;;;;;4964498;28;20356;-67
2022/11/23 02:07:29;;;;;;;4.40;1.75;;;;;;;;;;4949129;28;20049;-66
2022/11/23 02:09:56;;;;;;;;;;;;;;;;;;4982514;28;20112;-69
2022/11/23 02:12:22;;;;;;;5.57;1.60;;;;;;;;;;4973617;28;19945;-67
2022/11/23 02:14:49;;;;;;;4.47;1.77;;;;;;;;;;4968956;28;20065;-67
2022/11/23 02:17:22;;;;;;;3.97;1.70;;;;;;;;;;4974670;28;20062;-67
2022/11/23 02:19:53;;;;;;;6.22;1.90;;;;;;;;;;4983165;28;20057;-67
2022/11/23 02:22:24;;;;;;;7.00;1.95;;;;;;;;;;4980902;28;20057;-67
2022/11/23 02:24:53;;;;;;;5.10;2.00;;;;;;;;;;4946202;28;20100;-67
2022/11/23 02:27:24;;;;;;;5.40;1.70;;;;;;;;;;4976067;28;20065;-69
2022/11/23 02:29:50;;;;;;;5.38;1.75;;;;;;;;;;4973085;28;20557;-67
2022/11/23 02:32:19;;;;;;;7.03;1.70;;;;;;;;;;4967967;28;20049;-67
2022/11/23 02:34:45;;;;;;;3.47;1.65;;;;;;;;;;4981743;28;20160;-68
2022/11/23 02:37:12;;;;;;;7.93;2.05;;;;;;;;;;4977178;28;20049;-68
2022/11/23 02:39:41;;;;;;;6.07;1.92;;;;;;;;;;4985870;28;20289;-67
2022/11/23 02:42:07;;;;;;;;;;;;;;;;;;4962685;28;20054;-67
2022/11/23 02:44:37;;;;;;;4.80;1.85;;;;;;;;;;4967441;28;19928;-67
2022/11/23 02:47:04;;;;;;;5.35;1.70;;;;;;;;;;4982205;28;20053;-67
2022/11/23 02:49:31;;;;;;;5.57;1.90;;;;;;;;;;4954546;28;20061;-67
2022/11/23 02:51:57;;;;;;;4.13;1.80;;;;;;;;;;4992742;28;20054;-67
2022/11/23 02:54:24;;;;;;;4.60;1.80;;;;;;;;;;4962285;28;20568;-68
2022/11/23 02:56:50;;;;;;;5.93;1.73;;;;;;;;;;4989638;28;20062;-68
2022/11/23 02:59:17;;;;;;;5.38;1.85;;;;;;;;;;4962727;28;20062;-68
2022/11/23 03:01:45;;;;;;;5.38;1.70;;;;;;;;;;4966750;28;20050;-67
2022/11/23 03:04:11;;;;;;;4.60;1.90;;;;;;;;;;4940235;28;20061;-67
2022/11/23 03:06:38;;;;;;;4.55;1.90;;;;;;;;;;4966090;28;20150;-67
2022/11/23 03:09:05;;;;;;;3.95;1.70;;;;;;;;;;4924346;28;20064;-67
2022/11/23 03:11:32;;;;;;;4.22;1.70;;;;;;;;;;4932213;28;20058;-68
2022/11/23 03:13:58;;;;;;;5.65;1.73;;;;;;;;;;4967291;28;20178;-67
2022/11/23 03:16:25;;;;;;;4.70;1.73;;;;;;;;;;4982588;28;20136;-67
2022/11/23 03:18:53;;;;;;;8.40;1.80;;;;;;;;;;4994867;28;20172;-68
2022/11/23 03:21:19;;;;;;;4.23;1.63;;;;;;;;;;4954622;28;20053;-69
2022/11/23 03:23:46;;;;;;;4.40;1.55;;;;;;;;;;4924517;28;20058;-67
2022/11/23 03:26:12;;;;;;;4.53;1.73;;;;;;;;;;4988966;28;20045;-68
2022/11/23 03:28:39;;;;;;;3.95;1.77;;;;;;;;;;4941669;28;20049;-67
2022/11/23 03:31:06;;;;;;;5.00;1.77;;;;;;;;;;4978245;28;20057;-68
2022/11/23 03:33:33;;;;;;;6.80;2.50;;;;;;;;;;4958340;28;20058;-68
2022/11/23 03:36:00;;;;;;;4.88;1.90;;;;;;;;;;4978921;28;20569;-67
2022/11/23 03:38:27;;;;;;;4.75;1.63;;;;;;;;;;4966555;28;20057;-67
2022/11/23 03:40:54;;;;;;;3.88;1.80;;;;;;;;;;4967913;28;20053;-68
2022/11/23 03:43:21;;;;;;;4.03;1.45;;;;;;;;;;4959630;28;20133;-70
2022/11/23 03:45:47;;;;;;;2.67;1.65;;;;;;;;;;4985525;28;20131;-68
2022/11/23 03:48:14;;;;;;;5.18;1.48;;;;;;;;;;4965836;28;20133;-67
2022/11/23 03:50:40;;;;;;;5.82;1.80;;;;;;;;;;4962660;28;20053;-67
2022/11/23 03:53:12;;;;;;;5.00;1.45;;;;;;;;;;4935648;28;20068;-68
2022/11/23 03:55:38;;;;;;;4.72;1.80;;;;;;;;;;4965269;28;20046;-67
2022/11/23 03:58:05;;;;;;;6.85;1.92;;;;;;;;;;4965586;28;20049;-68
2022/11/23 04:00:31;;;;;;;7.13;1.52;;;;;;;;;;4995337;28;20053;-67
2022/11/23 04:02:58;;;;;;;4.00;1.52;;;;;;;;;;4977808;28;20061;-67
2022/11/23 04:05:26;;;;;;;4.78;1.60;;;;;;;;;;4939780;28;20046;-67
2022/11/23 04:07:53;;;;;;;3.40;1.60;;;;;;;;;;4946220;28;20143;-67
2022/11/23 04:10:20;;;;;;;4.07;1.45;;;;;;;;;;4984994;28;20069;-68
2022/11/23 04:12:50;;;;;;;3.57;1.60;;;;;;;;;;4957151;28;20046;-67
2022/11/23 04:15:19;;;;;;;4.15;1.58;;;;;;;;;;4948813;28;20058;-68
2022/11/23 04:17:46;;;;;;;2.03;1.17;;;;;;;;;;4930644;28;20144;-68
2022/11/23 04:20:13;;;;;;;3.60;1.20;;;;;;;;;;4979094;28;20050;-68
2022/11/23 04:22:40;;;;;;;4.85;1.45;;;;;;;;;;4919742;28;20061;-68
2022/11/23 04:25:09;;;;;;;5.65;1.58;;;;;;;;;;4964764;28;20053;-68
2022/11/23 04:27:37;;;;;;;4.18;1.38;;;;;;;;;;4953641;28;20054;-67
2022/11/23 04:30:05;;;;;;;4.43;1.50;;;;;;;;;;4946494;28;20057;-67
2022/11/23 04:32:32;;;;;;;2.72;1.23;;;;;;;;;;4951317;28;20055;-68
2022/11/23 04:34:58;;;;;;;4.57;1.33;;;;;;;;;;4958490;28;20062;-68
2022/11/23 04:37:25;;;;;;;3.13;1.30;;;;;;;;;;4952690;28;20165;-67
2022/11/23 04:39:51;;;;;;;4.80;1.30;;;;;;;;;;4962514;28;20058;-68
2022/11/23 04:42:18;;;;;;;5.30;1.60;;;;;;;;;;4963071;28;20038;-68
2022/11/23 04:44:47;;;;;;;6.60;1.65;;;;;;;;;;4944074;28;20054;-69
2022/11/23 04:47:16;;;;;;;3.45;1.23;;;;;;;;;;4937429;28;20058;-68
2022/11/23 04:49:43;;;;;;;7.63;1.77;;;;;;;;;;4956156;28;20061;-68
2022/11/23 04:52:09;;;;;;;5.03;1.50;;;;;;;;;;4961995;28;20061;-69
2022/11/23 04:54:36;;;;;;;3.00;1.27;;;;;;;;;;4964097;28;20046;-67
2022/11/23 04:57:03;;;;;;;3.45;1.40;;;;;;;;;;4951029;28;20054;-68
2022/11/23 04:59:29;;;;;;;2.85;1.20;;;;;;;;;;4952361;28;20083;-67
2022/11/23 05:01:57;;;;;;;3.13;1.23;;;;;;;;;;4938963;28;20054;-68
2022/11/23 05:04:24;;;;;;;4.32;1.42;;;;;;;;;;4950119;28;20073;-67
2022/11/23 05:06:51;;;;;;;3.10;1.15;;;;;;;;;;4959400;28;20089;-68
2022/11/23 05:09:17;;;;;;;6.82;1.30;;;;;;;;;;4974290;28;20038;-69
2022/11/23 05:11:44;;;;;;;5.82;1.50;;;;;;;;;;4994816;28;20365;-67
2022/11/23 05:14:10;;;;;;;4.13;1.55;;;;;;;;;;4960178;28;20041;-68
2022/11/23 05:16:37;;;;;;;3.40;1.30;;;;;;;;;;4969805;28;20053;-68
2022/11/23 05:19:05;;;;;;;3.38;1.23;;;;;;;;;;4967050;28;20108;-67
2022/11/23 05:21:32;;;;;;;4.07;1.27;;;;;;;;;;4952226;28;20090;-67
2022/11/23 05:23:58;;;;;;;5.22;1.20;;;;;;;;;;4975613;28;20054;-67
2022/11/23 05:26:25;;;;;;;3.20;1.27;;;;;;;;;;4951380;28;20046;-68
2022/11/23 05:28:52;;;;;;;5.50;1.10;;;;;;;;;;4982128;28;20045;-67
2022/11/23 05:31:18;;;;;;;3.45;1.38;;;;;;;;;;4978221;28;20104;-67
2022/11/23 05:33:45;;;;;;;3.42;1.30;;;;;;;;;;4963001;28;20246;-67
2022/11/23 05:36:13;;;;;;;6.90;1.40;;;;;;;;;;4938789;28;20058;-68
2022/11/23 05:38:40;;;;;;;4.68;1.30;;;;;;;;;;4950481;28;20100;-67
2022/11/23 05:41:07;;;;;;;3.35;1.20;;;;;;;;;;4983342;28;20082;-68
2022/11/23 05:43:33;;;;;;;7.57;1.60;;;;;;;;;;4973782;28;20090;-67
2022/11/23 05:46:00;;;;;;;3.25;1.20;;;;;;;;;;4968499;28;20066;-67
2022/11/23 05:48:27;;;;;;;2.53;1.15;;;;;;;;;;4965381;28;20061;-68
2022/11/23 05:50:53;;;;;;;3.55;1.23;;;;;;;;;;4956868;28;20133;-68
2022/11/23 05:53:21;;;;;;;4.30;1.20;;;;;;;;;;4933098;28;20054;-68
2022/11/23 05:55:48;;;;;;;6.57;1.40;;;;;;;;;;4962092;28;20108;-67
2022/11/23 05:58:14;;;;;;;4.47;1.20;;;;;;;;;;4996921;28;20085;-66
2022/11/23 06:00:41;;;;;;;5.65;1.25;;;;;;;;;;4945505;28;20045;-68
2022/11/23 06:03:08;;;;;;;3.60;1.20;;;;;;;;;;4978450;28;20078;-68
2022/11/23 06:05:35;;;;;;;5.22;1.17;;;;;;;;;;4954518;28;20069;-67
2022/11/23 06:08:01;;;;;;;3.08;1.27;;;;;;;;;;4963554;28;20152;-67
2022/11/23 06:10:29;;;;;;;3.40;0.95;;;;;;;;;;4957563;28;20054;-68
2022/11/23 06:12:56;;;;;;;3.47;1.13;;;;;;;;;;4957491;28;20113;-67
2022/11/23 06:15:23;;;;;;;5.78;1.42;;;;;;;;;;4929218;28;20058;-67
2022/11/23 06:17:49;;;;;;;4.03;1.30;;;;;;;;;;4950945;28;20181;-67
2022/11/23 06:20:16;;;;;;;2.92;1.40;;;;;;;;;;4966152;28;20058;-67
2022/11/23 06:22:42;;;;;;;3.95;1.20;;;;;;;;;;4930222;28;20058;-66
2022/11/23 06:25:09;;;;;;;3.38;1.15;;;;;;;;;;4954719;28;20096;-67
2022/11/23 06:27:37;;;;;;;4.22;1.40;;;;;;;;;;4952434;28;20109;-66
2022/11/23 06:30:05;;;;;;;5.03;1.40;;;;;;;;;;4962491;28;20054;-67
2022/11/23 06:32:31;;;;;;;4.63;1.55;;;;;;;;;;4957957;28;20058;-67
2022/11/23 06:34:58;;;;;;;2.72;1.27;;;;;;;;;;4952140;28;20402;-67
2022/11/23 06:37:24;;;;;;;4.63;1.35;;;;;;;;;;4939509;28;20213;-67
2022/11/23 06:39:51;;;;;;;5.18;1.40;;;;;;;;;;4944296;28;20059;-67
2022/11/23 06:42:17;;;;;;;3.75;1.23;;;;;;;;;;4959912;28;20073;-67
2022/11/23 06:44:45;;;;;;;3.35;1.10;;;;;;;;;;4953210;28;20054;-67
2022/11/23 06:47:13;;;;;;;3.75;1.50;;;;;;;;;;4904322;28;20057;-68
2022/11/23 06:49:40;;;;;;;5.25;1.20;;;;;;;;;;4952231;28;20140;-66
2022/11/23 06:52:07;;;;;;;7.20;1.23;;;;;;;;;;4932898;28;20062;-66
2022/11/23 06:54:33;;;;;;;4.40;1.35;;;;;;;;;;4929046;28;20052;-67
2022/11/23 06:57:02;;;;;;;4.85;1.50;;;;;;;;;;4974284;28;20050;-67
2022/11/23 06:59:29;;;;;;;6.18;1.55;;;;;;;;;;4953606;28;20062;-67
2022/11/23 07:01:57;;;;;;;5.88;1.48;;;;;;;;;;4960516;28;20073;-67
2022/11/23 07:04:23;;;;;;;5.55;1.65;;;;;;;;;;4931206;28;20053;-67
2022/11/23 07:06:50;;;;;;;4.30;1.10;;;;;;;;;;4955951;28;20089;-67
2022/11/23 07:09:17;;;;;;;4.95;1.30;;;;;;;;;;4952601;28;20054;-66
2022/11/23 07:11:43;;;;;;;5.95;1.63;;;;;;;;;;4976850;28;20056;-67
2022/11/23 07:14:10;;;;;;;5.65;1.75;;;;;;;;;;4951021;28;20050;-66
2022/11/23 07:16:37;;;;;;;6.35;1.20;;;;;;;;;;4966770;28;20120;-66
2022/11/23 07:19:12;;;;;;;6.05;1.30;;;;;;;;;;4969981;28;20138;-67
2022/11/23 07:21:38;;;;;;;2.53;1.10;;;;;;;;;;4924232;28;20226;-67
2022/11/23 07:24:05;;;;;;;8.15;1.23;;;;;;;;;;4946014;28;20058;-66
2022/11/23 07:26:32;;;;;;;9.25;1.17;;;;;;;;;;4957376;28;20050;-66
2022/11/23 07:28:58;;;;;;;4.05;1.33;;;;;;;;;;4973905;28;20057;-66
2022/11/23 07:31:25;;;;;;;4.40;1.35;;;;;;;;;;4963009;28;20049;-66
2022/11/23 07:33:52;;;;;;;2.75;1.27;;;;;;;;;;4930627;28;20058;-66
2022/11/23 07:36:20;;;;;;;4.30;1.33;;;;;;;;;;4975948;28;20050;-67
2022/11/23 07:38:46;;;;;;;4.30;1.37;;;;;;;;;;4960417;28;20053;-67
2022/11/23 07:41:17;;;;;;;7.25;1.35;;;;;;;;;;4974922;28;20362;-68
2022/11/23 07:43:43;;;;;;;8.77;1.52;;;;;;;;;;4957334;28;20058;-69
2022/11/23 07:46:10;;;;;;;7.15;1.50;;;;;;;;;;4956761;28;20045;-67
2022/11/23 07:48:37;;;;;;;4.75;1.40;;;;;;;;;;4944319;28;20056;-67
2022/11/23 07:51:08;;;;;;;5.18;1.63;;;;;;;;;;4938161;28;20050;-67
2022/11/23 07:53:36;;;;;;;5.50;1.52;;;;;;;;;;4899923;28;20119;-67
2022/11/23 07:56:03;;;;;;;4.27;1.40;;;;;;;;;;4932174;28;20093;-67
2022/11/23 07:58:31;;;;;;;5.53;1.55;;;;;;;;;;4954976;28;20328;-68
2022/11/23 08:00:58;;;;;;;6.15;1.75;;;;;;;;;;4974029;28;20085;-67
2022/11/23 08:03:24;;;;;;;7.05;1.50;;;;;;;;;;4938739;28;20141;-67
2022/11/23 08:05:51;;;;;;;5.63;1.77;;;;;;;;;;4950386;28;20144;-68
2022/11/23 08:08:18;;;;;;;4.75;1.50;;;;;;;;;;4943432;28;20088;-67
2022/11/23 08:10:46;;;;;;;6.28;1.63;;;;;;;;;;4964092;28;20064;-67
2022/11/23 08:13:12;;;;;;;6.07;1.55;;;;;;;;;;4957642;28;20077;-69
2022/11/23 08:15:39;;;;;;;9.35;2.13;;;;;;;;;;4991209;28;20084;-67
2022/11/23 08:18:06;;;;;;;8.27;1.77;;;;;;;;;;4977866;28;20614;-68
2022/11/23 08:20:33;;;;;;;5.35;1.50;;;;;;;;;;4964139;28;20121;-67
2022/11/23 08:22:59;;;;;;;5.38;1.58;;;;;;;;;;4979662;28;20085;-68
2022/11/23 08:25:27;;;;;;;4.90;1.50;;;;;;;;;;4971749;28;20069;-68
2022/11/23 08:27:56;;;;;;;5.28;1.65;;;;;;;;;;4928292;28;20057;-67
2022/11/23 08:30:23;;;;;;;9.10;2.13;;;;;;;;;;4970704;28;20050;-67
2022/11/23 08:32:49;;;;;;;2.45;1.20;;;;;;;;;;4940763;28;20054;-68
2022/11/23 08:35:16;;;;;;;5.65;1.52;;;;;;;;;;4930751;28;20068;-69
2022/11/23 08:37:43;;;;;;;5.72;1.58;;;;;;;;;;4959012;28;20058;-68
2022/11/23 08:40:10;;;;;;;8.55;1.60;;;;;;;;;;4894752;29;20055;-67
2022/11/23 08:42:37;;;;;;;4.25;1.30;;;;;;;;;;4896829;28;20050;-67
2022/11/23 08:45:07;;;;;;;3.05;1.30;;;;;;;;;;4917154;28;20059;-69
2022/11/23 08:47:33;;;;;;;9.38;1.63;;;;;;;;;;4904174;28;20064;-70
2022/11/23 08:50:00;;;;;;;3.13;1.10;;;;;;;;;;4885915;29;20055;-70
2022/11/23 08:52:29;;;;;;;6.28;1.67;;;;;;;;;;4876593;29;20219;-69
2022/11/23 08:54:56;;;;;;;6.97;1.80;;;;;;;;;;4870536;29;20055;-69
2022/11/23 08:57:23;;;;;;;5.68;1.50;;;;;;;;;;4912898;28;20131;-69
2022/11/23 08:59:49;;;;;;;4.65;1.17;;;;;;;;;;4961201;28;20076;-69
2022/11/23 09:02:17;;;;;;;4.43;1.45;;;;;;;;;;4977678;28;20190;-69
2022/11/23 09:04:47;;;;;;;7.15;1.80;;;;;;;;;;4950537;28;20125;-70
2022/11/23 09:07:14;;;;;;;5.15;1.35;;;;;;;;;;4937768;28;20058;-70
2022/11/23 09:09:40;;;;;;;8.77;1.77;;;;;;;;;;4917388;28;20082;-70
2022/11/23 09:12:07;;;;;;;8.48;1.58;;;;;;;;;;4942120;28;20059;-70
2022/11/23 09:14:34;;;;;;;5.82;1.52;;;;;;;;;;4915235;28;20085;-69
2022/11/23 09:17:01;;;;;;;3.50;1.33;;;;;;;;;;4919861;28;20054;-69
2022/11/23 09:19:31;;;;;;;7.10;1.35;;;;;;;;;;4934344;28;20054;-69
2022/11/23 09:22:01;;;;;;;5.50;1.30;;;;;;;;;;4908943;28;20073;-69
2022/11/23 09:24:27;;;;;;;4.22;1.20;;;;;;;;;;4895945;28;20051;-68
2022/11/23 09:26:54;;;;;;;4.80;1.25;;;;;;;;;;4926261;28;20473;-67
2022/11/23 09:29:20;;;;;;;2.78;1.30;;;;;;;;;;4905254;28;20125;-67
2022/11/23 09:31:51;;;;;;;3.13;1.20;;;;;;;;;;4949665;28;20058;-68
2022/11/23 09:34:18;;;;;;;5.40;1.27;;;;;;;;;;4906100;28;20121;-67
2022/11/23 09:36:50;;;;;;;3.58;1.38;;;;;;;;;;4941408;28;20062;-68
2022/11/23 09:39:17;;;;;;;4.97;1.45;;;;;;;;;;4923567;28;20310;-67
2022/11/23 09:41:59;;;;;;;6.07;1.33;;;;;;;;;;4903583;28;20096;-68
2022/11/23 09:44:32;;;;;;;4.18;1.05;;;;;;;;;;4837086;29;20058;-67
2022/11/23 09:47:08;;;;;;;7.95;1.23;;;;;;;;;;4860577;29;20056;-68
2022/11/23 09:49:41;;;;;;;6.38;1.23;;;;;;;;;;4872957;29;20578;-67
2022/11/23 09:52:14;;;;;;;6.30;1.23;;;;;;;;;;4884717;29;20055;-67
2022/11/23 09:54:41;;;;;;;7.38;1.38;;;;;;;;;;4838868;29;20075;-68
2022/11/23 09:57:11;;;;;;;5.25;1.00;;;;;;;;;;4856914;29;20067;-68
2022/11/23 09:59:41;;;;;;;9.02;1.30;;;;;;;;;;4938411;28;20220;-67
2022/11/23 10:02:14;;;;;;;4.18;1.17;;;;;;;;;;4930014;28;20153;-68
2022/11/23 10:04:43;;;;;;;6.75;1.50;;;;;;;;;;4894276;28;20150;-68
2022/11/23 10:07:22;;;;;;;5.03;1.00;;;;;;;;;;4942858;28;20061;-68
2022/11/23 10:09:54;;;;;;;4.57;1.20;;;;;;;;;;4947605;28;20063;-67
2022/11/23 10:12:31;;;;;;;4.32;1.00;;;;;;;;;;4969753;28;20058;-68
2022/11/23 10:15:02;;;;;;;5.20;1.30;;;;;;;;;;4970863;28;20062;-67
2022/11/23 10:17:36;;;;;;;2.92;1.13;;;;;;;;;;4949625;28;20066;-69
2022/11/23 10:20:11;;;;;;;5.00;1.17;;;;;;;;;;4959255;28;20054;-68
2022/11/23 10:22:42;;;;;;;7.80;1.27;;;;;;;;;;4982231;28;20052;-67
2022/11/23 10:25:14;;;;;;;4.53;1.10;;;;;;;;;;4952935;28;20058;-69
2022/11/23 10:27:40;;;;;;;6.07;1.38;;;;;;;;;;4927126;28;20060;-67
2022/11/23 10:30:11;;;;;;;5.63;1.23;;;;;;;;;;4955209;28;20141;-68
2022/11/23 10:32:43;;;;;;;5.95;1.30;;;;;;;;;;4961966;28;20054;-67
2022/11/23 10:35:18;;;;;;;3.85;1.10;;;;;;;;;;4911387;28;20121;-67
2022/11/23 10:37:46;;;;;;;10.75;1.10;;;;;;;;;;4965391;28;20064;-67
2022/11/23 10:40:16;;;;;;;4.63;1.00;;;;;;;;;;4958723;28;20050;-67
2022/11/23 10:42:44;;;;;;;5.32;1.40;;;;;;;;;;4940987;28;20520;-68
2022/11/23 10:45:18;;;;;;;7.75;1.30;;;;;;;;;;4922746;28;20137;-68
2022/11/23 10:47:49;;;;;;;5.88;1.20;;;;;;;;;;4943996;28;20050;-68
2022/11/23 10:50:23;;;;;;;5.05;1.02;;;;;;;;;;4896820;28;20054;-68
2022/11/23 10:52:54;;;;;;;6.10;1.33;;;;;;;;;;4995060;28;20048;-67
2022/11/23 10:55:24;;;;;;;4.88;1.38;;;;;;;;;;4929013;28;20064;-68
2022/11/23 10:57:50;;;;;;;5.85;1.10;;;;;;;;;;4973678;28;20048;-68
2022/11/23 11:00:23;;;;;;;5.28;1.05;;;;;;;;;;4952073;28;20059;-68
2022/11/23 11:02:53;;;;;;;3.85;1.08;;;;;;;;;;4928170;28;20200;-67
2022/11/23 11:05:25;;;;;;;6.45;1.30;;;;;;;;;;4885729;28;20244;-67
2022/11/23 11:07:54;;;;;;;6.97;1.13;;;;;;;;;;4951986;28;20074;-67
2022/11/23 11:10:38;;;;;;;3.53;0.85;;;;;;;;;;4961810;28;20114;-67
2022/11/23 11:13:21;;;;;;;5.15;1.08;;;;;;;;;;4951357;28;20305;-67
2022/11/23 11:15:51;;;;;;;3.35;0.90;;;;;;;;;;4916448;28;20104;-67
2022/11/23 11:18:21;;;;;;;2.50;0.98;;;;;;;;;;4959041;28;20126;-68
2022/11/23 11:20:47;;;;;;;8.45;1.25;;;;;;;;;;4985249;28;20057;-68
2022/11/23 11:23:20;;;;;;;7.30;1.08;;;;;;;;;;4973347;28;20057;-67
2022/11/23 11:25:48;;;;;;;7.15;1.13;;;;;;;;;;4944461;28;20062;-68
2022/11/23 11:28:22;;;;;;;5.78;1.00;;;;;;;;;;4949880;28;20057;-68
2022/11/23 11:30:54;;;;;;;4.07;0.88;;;;;;;;;;4944467;28;20054;-67
2022/11/23 11:33:26;;;;;;;4.40;0.93;;;;;;;;;;4952149;28;20358;-68
2022/11/23 11:35:53;;;;;;;6.35;0.85;;;;;;;;;;4931113;28;20070;-67
2022/11/23 11:38:28;;;;;;;5.20;1.10;;;;;;;;;;4948938;28;20065;-68
2022/11/23 11:40:59;;;;;;;6.22;1.20;;;;;;;;;;4911852;28;20054;-69
2022/11/23 11:43:25;;;;;;;;;;;;;;;;;;4933736;28;20658;-68
2022/11/23 11:45:54;;;;;;;4.70;0.80;;;;;;;;;;4941571;28;19955;-68
2022/11/23 11:48:25;;;;;;;8.43;1.20;;;;;;;;;;4963850;28;20134;-70
2022/11/23 11:50:53;;;;;;;5.05;0.90;;;;;;;;;;4958463;28;20086;-68
2022/11/23 11:53:22;;;;;;;4.70;1.27;;;;;;;;;;4940530;28;20229;-68
2022/11/23 11:55:52;;;;;;;3.42;1.67;;;;;;;;;;4937561;28;20057;-68
2022/11/23 11:58:22;;;;;;;6.38;1.17;;;;;;;;;;4935986;28;20053;-68
2022/11/23 12:00:50;;;;;;;4.68;1.00;;;;;;;;;;4949518;28;20052;-68
2022/11/23 12:03:20;;;;;;;8.90;1.38;;;;;;;;;;4941138;28;20153;-69
2022/11/23 12:05:49;;;;;;;5.80;1.00;;;;;;;;;;4911488;28;20078;-68
2022/11/23 12:08:30;;;;;;;2.85;0.85;;;;;;;;;;4939890;28;20060;-68
2022/11/23 12:11:01;;;;;;;7.68;1.25;;;;;;;;;;4961879;28;20260;-69
2022/11/23 12:13:29;;;;;;;6.93;1.25;;;;;;;;;;4960708;28;20061;-68
2022/11/23 12:16:01;;;;;;;3.80;1.35;;;;;;;;;;4933428;28;20069;-68
2022/11/23 12:18:51;;;;;;;4.35;0.90;;;;;;;;;;4976222;28;20088;-68
2022/11/23 12:21:28;;;;;;;3.90;1.50;;;;;;;;;;4955763;28;20115;-68
2022/11/23 12:24:02;;;;;;;7.32;0.77;;;;;;;;;;4945702;28;20050;-68
2022/11/23 12:26:39;;;;;;;7.57;1.20;;;;;;;;;;4929091;28;20136;-68
2022/11/23 12:29:23;;;;;;;6.00;1.10;;;;;;;;;;4990654;28;20081;-69
2022/11/23 12:31:53;;;;;;;6.38;1.00;;;;;;;;;;4960835;28;20061;-68
2022/11/23 12:34:30;;;;;;;6.97;1.15;;;;;;;;;;4948247;28;20056;-69
2022/11/23 12:37:11;;;;;;;2.85;0.85;;;;;;;;;;4958337;28;20401;-69
2022/11/23 12:39:49;;;;;;;4.05;1.10;;;;;;;;;;4925048;28;20223;-69
2022/11/23 12:42:19;;;;;;;5.55;1.00;;;;;;;;;;4901370;28;20062;-68
2022/11/23 12:44:55;;;;;;;4.20;1.02;;;;;;;;;;4966088;28;20556;-69
2022/11/23 12:47:31;;;;;;;5.57;0.88;;;;;;;;;;4966708;28;20053;-69
2022/11/23 12:50:08;;;;;;;10.93;1.10;;;;;;;;;;4977774;28;20100;-68
2022/11/23 12:52:44;;;;;;;4.75;0.82;;;;;;;;;;4942675;28;20074;-68
2022/11/23 12:55:21;;;;;;;3.85;0.70;;;;;;;;;;4917811;28;20408;-70
2022/11/23 12:57:52;;;;;;;8.07;0.90;;;;;;;;;;4956663;28;20219;-68
2022/11/23 13:00:22;;;;;;;4.07;1.00;;;;;;;;;;4945287;28;20436;-68
2022/11/23 13:03:06;;;;;;;5.20;1.10;;;;;;;;;;4961036;28;20090;-68
2022/11/23 13:05:45;;;;;;;3.55;1.00;;;;;;;;;;4913741;28;20932;-68
2022/11/23 13:08:30;;;;;;;2.70;0.70;;;;;;;;;;4958322;28;20071;-68
2022/11/23 13:11:08;;;;;;;2.80;0.70;;;;;;;;;;4958201;28;20050;-68
2022/11/23 13:13:47;;;;;;;5.13;1.02;;;;;;;;;;4926628;28;21136;-68
2022/11/23 13:16:35;;;;;;;5.25;0.70;;;;;;;;;;4924120;28;20089;-68
2022/11/23 13:19:15;;;;;;;3.45;0.95;;;;;;;;;;4901725;28;20058;-68
2022/11/23 13:21:42;;;;;;;6.20;1.00;;;;;;;;;;4974593;28;20049;-68
2022/11/23 13:24:24;;;;;;;3.30;0.80;;;;;;;;;;4965436;28;20058;-68
2022/11/23 13:27:16;;;;;;;4.05;0.73;;;;;;;;;;4939374;28;20062;-68
2022/11/23 13:29:47;;;;;;;9.05;0.90;;;;;;;;;;4913942;28;20058;-68
2022/11/23 13:32:28;;;;;;;8.50;0.73;;;;;;;;;;4950124;28;20054;-69
2022/11/23 13:34:55;;;;;;;4.55;0.90;;;;;;;;;;4945202;28;20054;-69
2022/11/23 13:37:23;;;;;;;4.03;1.00;;;;;;;;;;4949460;28;20069;-70
2022/11/23 13:40:04;;;;;;;2.83;0.90;;;;;;;;;;4958867;28;20576;-68
2022/11/23 13:42:33;;;;;;;2.17;0.70;;;;;;;;;;4935547;28;20042;-69
2022/11/23 13:45:21;;;;;;;3.08;0.90;;;;;;;;;;4954435;28;20050;-68
2022/11/23 13:48:03;;;;;;;2.67;0.77;;;;;;;;;;4969923;28;20072;-68
2022/11/23 13:50:30;;;;;;;2.58;0.60;;;;;;;;;;4970974;28;20081;-69
2022/11/23 13:52:57;;;;;;;2.47;0.80;;;;;;;;;;4964858;28;20065;-68
2022/11/23 13:55:29;;;;;;;4.28;1.10;;;;;;;;;;4928075;28;20145;-68
2022/11/23 13:58:14;;;;;;;7.10;1.08;;;;;;;;;;4936300;28;20366;-68
2022/11/23 14:00:47;;;;;;;4.13;1.10;;;;;;;;;;4968262;28;20049;-68
2022/11/23 14:03:28;;;;;;;4.03;0.73;;;;;;;;;;4961579;28;20060;-69
2022/11/23 14:06:00;;;;;;;1.50;0.70;;;;;;;;;;4856948;28;20092;-68
2022/11/23 14:08:26;;;;;;;;;;;;;;;;;;4951205;28;20080;-68
2022/11/23 14:10:56;;;;;;;2.92;0.75;;;;;;;;;;4941609;28;19952;-68
2022/11/23 14:13:25;;;;;;;1.88;0.80;;;;;;;;;;4968427;28;20076;-69
2022/11/23 14:15:55;;;;;;;2.42;0.70;;;;;;;;;;4939083;28;20065;-68
2022/11/23 14:18:37;;;;;;;2.03;0.82;;;;;;;;;;4978273;28;20057;-67
2022/11/23 14:21:08;;;;;;;0.95;0.55;;;;;;;;;;4981329;28;20062;-67
2022/11/23 14:23:46;;;;;;;2.33;0.93;;;;;;;;;;4939825;28;20081;-67
2022/11/23 14:26:19;;;;;;;2.38;0.88;;;;;;;;;;4928626;28;20045;-67
2022/11/23 14:28:54;;;;;;;2.95;0.80;;;;;;;;;;4956139;28;20064;-67
2022/11/23 14:31:26;;;;;;;3.90;0.75;;;;;;;;;;4932341;28;20133;-67
2022/11/23 14:33:55;;;;;;;1.85;0.77;;;;;;;;;;4974255;28;20363;-67
2022/11/23 14:36:26;;;;;;;2.90;0.90;;;;;;;;;;4947396;28;20119;-66
2022/11/23 14:39:08;;;;;;;2.70;0.80;;;;;;;;;;4946161;28;20101;-66
2022/11/23 14:41:41;;;;;;;3.33;0.68;;;;;;;;;;4931776;28;20495;-67
2022/11/23 14:44:12;;;;;;;1.70;0.73;;;;;;;;;;4961302;28;20054;-67
2022/11/23 14:46:58;;;;;;;3.40;0.70;;;;;;;;;;4931436;28;20053;-66
2022/11/23 14:49:26;;;;;;;2.40;0.70;;;;;;;;;;4944686;28;20054;-67
2022/11/23 14:51:56;;;;;;;2.83;1.15;;;;;;;;;;4966868;28;20054;-66
2022/11/23 14:54:24;;;;;;;6.28;1.20;;;;;;;;;;4918264;28;20069;-65
2022/11/23 14:56:57;;;;;;;4.40;0.95;;;;;;;;;;4893733;28;20054;-66